createdAt,value
2022-12-23T00:14:23.152Z,100263.31
2022-12-23T00:16:43.029Z,100270.37
2022-12-23T00:19:12.825Z,100274.17
2022-12-23T00:24:12.845Z,100279.57
2022-12-23T00:31:43.160Z,100295.97
2022-12-23T00:34:12.851Z,100299.77
2022-12-23T00:36:42.882Z,100293.95
2022-12-23T00:39:23.795Z,100298.91
2022-12-23T00:41:53.458Z,100297.39
2022-12-23T00:46:42.942Z,100297.94
2022-12-23T00:51:42.977Z,100305.12999999999
2022-12-23T00:56:43.498Z,100313.17
2022-12-23T00:59:13.017Z,100312.59
2022-12-23T01:01:53.000Z,100313.37
2022-12-23T01:04:24.032Z,100321.41
2022-12-23T01:06:43.031Z,100321.86
2022-12-23T01:09:13.220Z,100323.8
2022-12-23T01:26:43.245Z,100350.51999999999
2022-12-23T01:31:42.975Z,100361.69
2022-12-23T01:34:12.848Z,100366.38
2022-12-23T01:41:53.127Z,100380.02
2022-12-23T01:46:42.833Z,100381.78
2022-12-23T01:49:12.887Z,100383.45000000001
2022-12-23T01:54:13.356Z,100385.29999999999
2022-12-23T01:59:24.539Z,100386.73999999999
2022-12-23T02:01:52.861Z,100391.21
2022-12-23T02:12:01.830Z,100398.95
2022-12-23T02:16:51.240Z,100406.64
2022-12-23T02:19:20.674Z,100402.44
2022-12-23T02:22:02.943Z,100401.09999999999
2022-12-23T02:26:59.301Z,100408.29
2022-12-23T02:31:53.586Z,100409.59
2022-12-23T02:34:18.434Z,100409.27
2022-12-23T02:36:53.035Z,100411.49
2022-12-23T02:39:19.483Z,100413.08
2022-12-23T02:41:51.695Z,100410.82
2022-12-23T02:44:22.750Z,100412.25
2022-12-23T02:51:48.880Z,100430.35
2022-12-23T02:54:17.579Z,100437.81
2022-12-23T03:04:14.177Z,100442.03
2022-12-23T03:09:21.981Z,100446.72
2022-12-23T03:11:50.180Z,100455.53
2022-12-23T03:14:29.317Z,100461.28
2022-12-23T03:16:52.599Z,100460.20999999999
2022-12-23T03:19:24.091Z,100466.13
2022-12-23T03:21:47.509Z,100465.91
2022-12-23T03:24:21.920Z,100461.83
2022-12-23T03:29:17.283Z,100464.43000000001
2022-12-23T03:31:46.191Z,100460.70999999999
2022-12-23T03:39:26.810Z,100468.55
2022-12-23T03:41:47.908Z,100472.05
2022-12-23T03:44:17.862Z,100474.13
2022-12-23T03:46:48.644Z,100477.95999999999
2022-12-23T03:49:17.211Z,100476.51
2022-12-23T03:54:17.820Z,100474.3
2022-12-23T03:56:46.870Z,100471.83
2022-12-23T03:59:18.662Z,100474.58
2022-12-23T04:01:53.437Z,100469.39
2022-12-23T04:09:21.593Z,100479.14
2022-12-23T04:11:43.139Z,100479.21
2022-12-23T04:14:16.082Z,100480.05
2022-12-23T04:16:43.450Z,100476.48000000001
2022-12-23T04:21:43.451Z,100483.73
2022-12-23T04:26:42.875Z,100486.51999999999
2022-12-23T04:31:43.010Z,100488.81
2022-12-23T04:34:13.405Z,100491.02
2022-12-23T04:41:43.068Z,100505.56
2022-12-23T04:46:43.156Z,100507.09000000001
2022-12-23T04:51:43.729Z,100510.05
2022-12-23T04:54:12.893Z,100505.33
2022-12-23T05:04:13.702Z,100514.83
2022-12-23T05:09:12.888Z,100518.26999999999
2022-12-23T05:14:12.919Z,100508.51
2022-12-23T05:16:43.111Z,100516.08
2022-12-23T05:19:13.315Z,100518.86
2022-12-23T05:21:42.948Z,100518.66
2022-12-23T05:24:13.004Z,100513.87
2022-12-23T05:26:48.067Z,100509.61
2022-12-23T05:29:13.085Z,100512.56
2022-12-23T05:31:42.974Z,100517.04999999999
2022-12-23T05:34:13.187Z,100521.17
2022-12-23T05:36:42.874Z,100520.2
2022-12-23T05:39:13.527Z,100516.03
2022-12-23T05:41:42.951Z,100512.59
2022-12-23T05:44:12.936Z,100518.05
2022-12-23T05:46:43.340Z,100517.33
2022-12-23T05:49:12.938Z,100517.13
2022-12-23T05:54:13.631Z,100517.58
2022-12-23T05:56:42.917Z,100522.06
2022-12-23T05:59:12.889Z,100522.25
2022-12-23T06:04:13.414Z,100519.7
2022-12-23T06:09:13.305Z,100534.31
2022-12-23T06:11:43.171Z,100528.66
2022-12-23T06:14:13.051Z,100532.31
2022-12-23T06:16:42.979Z,100534.62
2022-12-23T06:19:12.953Z,100543.84
2022-12-23T06:34:13.294Z,100562.45
2022-12-23T06:36:42.908Z,100565.66
2022-12-23T06:39:13.323Z,100566.62
2022-12-23T06:46:43.591Z,100577.39
2022-12-23T06:54:23.402Z,100590.94
2022-12-23T07:09:13.279Z,100607.89
2022-12-23T07:16:43.268Z,100613.49
2022-12-23T07:21:43.443Z,100614.14
2022-12-23T07:24:12.938Z,100613.49
2022-12-23T07:26:43.071Z,100616.66
2022-12-23T07:31:43.089Z,100617.81
2022-12-23T07:41:43.278Z,100616.09
2022-12-23T07:44:13.270Z,100609.34999999999
2022-12-23T07:51:43.227Z,100621.15
2022-12-23T07:54:13.218Z,100620.15
2022-12-23T07:56:43.038Z,100611.63
2022-12-23T08:01:43.313Z,100596.44
2022-12-23T08:06:43.203Z,100590.88
2022-12-23T08:16:43.965Z,100572.88
2022-12-23T08:19:13.305Z,100583.15
2022-12-23T08:24:13.341Z,100597.5
2022-12-23T08:29:13.196Z,100592.66
2022-12-23T08:34:13.454Z,100600.73
2022-12-23T08:39:14.579Z,100597.02
2022-12-23T08:41:45.912Z,100593.55
2022-12-23T08:44:14.126Z,100594.83
2022-12-23T08:46:43.942Z,100598.32
2022-12-23T08:49:13.091Z,100594.31
2022-12-23T08:51:43.807Z,100587.7
2022-12-23T08:54:13.969Z,100581.52
2022-12-23T08:56:43.138Z,100585.15
2022-12-23T08:59:19.315Z,100586.17
2022-12-23T09:01:43.118Z,100582.17
2022-12-23T09:04:13.283Z,100576.53
2022-12-23T09:06:44.414Z,100573.72
2022-12-23T09:09:14.572Z,100575.23999999999
2022-12-23T09:11:43.699Z,100578.47
2022-12-23T09:14:13.283Z,100573.68000000001
2022-12-23T09:16:43.192Z,100565.14
2022-12-23T09:19:13.207Z,100559.19
2022-12-23T09:21:43.253Z,100559.97
2022-12-23T09:24:13.219Z,100562.19
2022-12-23T09:26:42.962Z,100562.15999999999
2022-12-23T09:29:13.325Z,100560.83
2022-12-23T09:31:43.019Z,100556.73000000001
2022-12-23T09:34:13.104Z,100546.28
2022-12-23T09:36:43.583Z,100540.73
2022-12-23T09:39:13.048Z,100537.13
2022-12-23T09:44:26.822Z,100544.8
2022-12-23T09:46:50.306Z,100543.26999999999
2022-12-23T09:49:16.733Z,100544.74
2022-12-23T09:51:44.800Z,100537.22
2022-12-23T09:54:17.748Z,100539.08
2022-12-23T09:56:50.486Z,100535.54000000001
2022-12-23T09:59:27.218Z,100540.28
2022-12-23T10:01:50.643Z,100543.45
2022-12-23T10:04:29.949Z,100548.69
2022-12-23T10:06:46.377Z,100550.16
2022-12-23T10:09:14.380Z,100548.18000000001
2022-12-23T10:11:45.852Z,100543.26999999999
2022-12-23T10:14:17.845Z,100537.36
2022-12-23T10:16:46.125Z,100531.47
2022-12-23T10:19:19.997Z,100523.01999999999
2022-12-23T10:21:48.306Z,100518.2
2022-12-23T10:24:20.417Z,100515.89
2022-12-23T10:26:51.068Z,100512.19
2022-12-23T10:29:19.070Z,100510.43
2022-12-23T10:31:55.795Z,100510.79999999999
2022-12-23T10:34:20.249Z,100503.79000000001
2022-12-23T10:36:52.117Z,100496.86
2022-12-23T10:39:24.494Z,100500.12000000001
2022-12-23T10:41:49.836Z,100506.4
2022-12-23T10:44:31.305Z,100503.31
2022-12-23T10:46:52.735Z,100497.06
2022-12-23T10:49:23.571Z,100491.90999999999
2022-12-23T10:59:16.974Z,100469.84
2022-12-23T11:01:49.552Z,100465.99
2022-12-23T11:04:16.222Z,100457.11
2022-12-23T11:06:47.401Z,100441.18999999999
2022-12-23T11:09:17.297Z,100432.69
2022-12-23T11:11:55.203Z,100437.78
2022-12-23T11:14:32.077Z,100436.98000000001
2022-12-23T11:16:45.177Z,100437.56
2022-12-23T11:19:15.039Z,100441.24
2022-12-23T11:21:53.527Z,100437.0
2022-12-23T11:24:17.088Z,100432.9
2022-12-23T11:26:44.870Z,100425.9
2022-12-23T11:36:44.302Z,100406.11
2022-12-23T11:41:46.774Z,100389.87
2022-12-23T11:44:20.752Z,100382.05
2022-12-23T11:46:43.199Z,100383.13
2022-12-23T11:49:16.629Z,100385.29999999999
2022-12-23T11:51:44.620Z,100381.62999999999
2022-12-23T11:54:17.379Z,100377.61
2022-12-23T11:56:43.621Z,100373.53
2022-12-23T12:01:47.100Z,100355.92
2022-12-23T12:04:19.789Z,100353.85
2022-12-23T12:06:48.413Z,100351.37
2022-12-23T12:09:13.664Z,100354.11
2022-12-23T12:14:22.282Z,100354.12
2022-12-23T12:19:19.838Z,100354.57
2022-12-23T12:21:45.036Z,100348.29999999999
2022-12-23T12:24:19.954Z,100348.85
2022-12-23T12:26:50.213Z,100347.48
2022-12-23T12:29:18.109Z,100348.19
2022-12-23T12:31:47.446Z,100341.45999999999
2022-12-23T12:34:27.727Z,100335.77
2022-12-23T12:36:52.056Z,100332.79
2022-12-23T12:41:50.317Z,100327.69
2022-12-23T12:46:49.977Z,100329.25
2022-12-23T12:49:21.521Z,100326.76
2022-12-23T12:51:48.230Z,100323.64
2022-12-23T12:54:22.894Z,100315.67
2022-12-23T12:56:47.583Z,100306.92
2022-12-23T12:59:16.348Z,100302.95
2022-12-23T13:01:52.263Z,100301.05
2022-12-23T13:04:31.901Z,100296.04000000001
2022-12-23T13:06:51.931Z,100289.45
2022-12-23T13:09:25.356Z,100288.9
2022-12-23T13:11:53.269Z,100281.19
2022-12-23T13:14:23.667Z,100282.5
2022-12-23T13:16:49.513Z,100271.25
2022-12-23T13:19:21.620Z,100273.51999999999
2022-12-23T13:26:53.733Z,100258.5
2022-12-23T13:29:31.551Z,100256.39
2022-12-23T13:31:48.814Z,100256.72
2022-12-23T13:34:27.869Z,100249.7
2022-12-23T13:36:51.500Z,100247.28
2022-12-23T13:39:29.072Z,100239.11
2022-12-23T13:41:46.181Z,100240.79000000001
2022-12-23T13:46:51.658Z,100236.72
2022-12-23T13:49:20.942Z,100237.33
2022-12-23T13:51:51.259Z,100234.92
2022-12-23T13:54:27.062Z,100225.84000000001
2022-12-23T13:56:51.335Z,100225.97
2022-12-23T13:59:15.464Z,100230.22
2022-12-23T14:01:45.986Z,100225.27
2022-12-23T14:04:32.404Z,100223.63
2022-12-23T14:06:44.241Z,100219.06
2022-12-23T14:09:15.548Z,100218.4
2022-12-23T14:11:44.012Z,100216.18999999999
2022-12-23T14:16:56.084Z,100213.23999999999
2022-12-23T14:19:31.386Z,100217.31
2022-12-23T14:21:52.649Z,100209.89
2022-12-23T14:27:01.802Z,100207.4
2022-12-23T14:29:29.825Z,100204.88
2022-12-23T14:31:45.905Z,100211.56999999999
2022-12-23T14:37:02.958Z,100201.42
2022-12-23T14:39:28.875Z,100195.86
2022-12-23T14:41:49.406Z,100199.11
2022-12-23T14:44:31.329Z,100198.12
2022-12-23T14:46:55.755Z,100195.47
2022-12-23T14:51:43.520Z,100190.34
2022-12-23T14:54:14.513Z,100185.33
2022-12-23T15:01:48.498Z,100178.81
2022-12-23T15:04:18.639Z,100173.14
2022-12-23T15:06:45.927Z,100173.25
2022-12-23T15:09:22.065Z,100173.67
2022-12-23T15:11:43.197Z,100169.96
2022-12-23T15:14:20.982Z,100170.95000000001
2022-12-23T15:16:45.645Z,100166.66
2022-12-23T15:19:19.544Z,100168.14
2022-12-23T15:21:46.800Z,100166.27
2022-12-23T15:24:15.779Z,100157.67
2022-12-23T15:27:09.889Z,100155.59
2022-12-23T15:29:15.504Z,100155.52
2022-12-23T15:31:46.671Z,100158.39
2022-12-23T15:34:20.814Z,100154.71
2022-12-23T15:36:44.808Z,100151.64
2022-12-23T15:39:19.221Z,100146.06999999999
2022-12-23T15:46:43.945Z,100146.2
2022-12-23T15:49:13.169Z,100151.57
2022-12-23T15:52:08.082Z,100155.25
2022-12-23T15:54:23.344Z,100158.09000000001
2022-12-23T15:56:48.263Z,100154.17
2022-12-23T15:59:21.589Z,100150.19
2022-12-23T16:01:43.552Z,100150.64
2022-12-23T16:04:19.376Z,100154.72
2022-12-23T16:06:48.725Z,100151.58
2022-12-23T16:09:29.019Z,100150.99
2022-12-23T16:11:53.678Z,100152.17
2022-12-23T16:14:23.953Z,100147.42
2022-12-23T16:16:43.641Z,100139.98
2022-12-23T16:19:32.891Z,100142.79000000001
2022-12-23T16:21:43.379Z,100142.08
2022-12-23T16:26:44.112Z,100135.68000000001
2022-12-23T16:29:14.168Z,100143.19
2022-12-23T16:31:51.019Z,100139.70000000001
2022-12-23T16:34:13.237Z,100137.13
2022-12-23T16:36:43.183Z,100144.06
2022-12-23T16:39:18.777Z,100149.67
2022-12-23T16:41:43.180Z,100142.46
2022-12-23T16:44:13.853Z,100153.94
2022-12-23T16:46:47.921Z,100148.71
2022-12-23T16:49:15.634Z,100154.76
2022-12-23T16:51:44.541Z,100150.92
2022-12-23T16:56:45.826Z,100149.37999999999
2022-12-23T16:59:13.864Z,100151.58
2022-12-23T17:01:46.165Z,100159.59
2022-12-23T17:04:14.185Z,100152.36
2022-12-23T17:06:45.409Z,100152.87
2022-12-23T17:09:13.594Z,100146.23
2022-12-23T17:16:44.581Z,100150.2
2022-12-23T17:19:13.396Z,100156.9
2022-12-23T17:21:45.943Z,100152.49
2022-12-23T17:24:20.419Z,100146.06999999999
2022-12-23T17:26:43.205Z,100152.01
2022-12-23T17:29:13.698Z,100148.14
2022-12-23T17:31:43.891Z,100148.41
2022-12-23T17:34:15.745Z,100149.73
2022-12-23T17:36:49.551Z,100150.92
2022-12-23T17:39:13.339Z,100147.73
2022-12-23T17:41:43.480Z,100148.46
2022-12-23T17:44:15.679Z,100151.65
2022-12-23T17:46:45.078Z,100152.49
2022-12-23T17:49:13.475Z,100153.68999999999
2022-12-23T17:51:43.296Z,100153.41
2022-12-23T17:54:21.328Z,100156.8
2022-12-23T17:56:43.137Z,100160.68000000001
2022-12-23T17:59:13.175Z,100163.2
2022-12-23T18:01:43.270Z,100163.78
2022-12-23T18:04:13.149Z,100167.28
2022-12-23T18:06:43.409Z,100164.47
2022-12-23T18:09:13.155Z,100165.62
2022-12-23T18:11:45.792Z,100164.89
2022-12-23T18:14:16.122Z,100162.48000000001
2022-12-23T18:16:43.465Z,100165.66
2022-12-23T18:19:16.895Z,100165.31
2022-12-23T18:21:43.362Z,100165.12
2022-12-23T18:24:15.154Z,100164.21
2022-12-23T18:26:43.851Z,100162.33
2022-12-23T18:29:13.194Z,100161.39
2022-12-23T18:31:51.663Z,100160.29999999999
2022-12-23T18:34:16.134Z,100160.31
2022-12-23T18:36:43.604Z,100156.93
2022-12-23T18:39:13.482Z,100151.01
2022-12-23T18:41:43.185Z,100150.72
2022-12-23T18:46:43.662Z,100147.93
2022-12-23T18:49:13.201Z,100149.94
2022-12-23T18:51:43.231Z,100156.19
2022-12-23T18:54:14.674Z,100152.37
2022-12-23T18:56:43.324Z,100146.1
2022-12-23T18:59:16.568Z,100136.42
2022-12-23T19:01:43.658Z,100144.59000000001
2022-12-23T19:04:13.306Z,100141.49
2022-12-23T19:06:43.986Z,100137.72
2022-12-23T19:09:16.593Z,100146.03
2022-12-23T19:11:46.002Z,100143.83
2022-12-23T19:14:13.733Z,100142.22
2022-12-23T19:16:49.252Z,100139.97
2022-12-23T19:19:13.455Z,100139.73
2022-12-23T19:21:43.570Z,100142.66
2022-12-23T19:24:13.372Z,100146.7
2022-12-23T19:26:43.335Z,100144.31
2022-12-23T19:29:13.514Z,100142.1
2022-12-23T19:31:43.225Z,100144.28
2022-12-23T19:34:15.371Z,100144.76
2022-12-23T19:36:43.439Z,100149.08
2022-12-23T19:39:15.392Z,100156.17
2022-12-23T19:41:43.409Z,100161.8
2022-12-23T19:44:13.250Z,100159.06
2022-12-23T19:46:43.556Z,100162.14
2022-12-23T19:49:19.606Z,100163.89
2022-12-23T19:51:43.673Z,100173.22
2022-12-23T19:54:13.375Z,100168.67
2022-12-23T19:56:44.057Z,100170.98
2022-12-23T19:59:13.267Z,100171.8
2022-12-23T20:01:44.136Z,100172.79999999999
2022-12-23T20:04:13.645Z,100174.0
2022-12-23T20:06:43.659Z,100177.33
2022-12-23T20:14:15.776Z,100171.42
2022-12-23T20:16:44.077Z,100171.75
2022-12-23T20:19:13.537Z,100167.14
2022-12-23T20:24:14.332Z,100175.58
2022-12-23T20:26:43.784Z,100175.2
2022-12-23T20:29:13.490Z,100177.88
2022-12-23T20:31:43.456Z,100176.62
2022-12-23T20:34:15.809Z,100179.44
2022-12-23T20:36:43.570Z,100181.53
2022-12-23T20:39:13.727Z,100184.52
2022-12-23T20:41:43.323Z,100185.33
2022-12-23T20:44:35.571Z,100188.01
2022-12-23T20:46:43.231Z,100185.46
2022-12-23T20:49:13.209Z,100183.26
2022-12-23T20:51:43.355Z,100190.89
2022-12-23T20:54:13.212Z,100186.79
2022-12-23T20:56:43.501Z,100190.63
2022-12-23T20:59:13.216Z,100187.59
2022-12-23T21:01:45.594Z,100190.91
2022-12-23T21:06:43.730Z,100189.78
2022-12-23T21:09:14.860Z,100198.77
2022-12-23T21:11:44.975Z,100205.24
2022-12-23T21:14:14.405Z,100211.64
2022-12-23T21:16:43.872Z,100212.01999999999
2022-12-23T21:19:16.611Z,100208.51
2022-12-23T21:21:44.169Z,100209.66
2022-12-23T21:26:48.874Z,100216.41
2022-12-23T21:29:14.120Z,100221.92
2022-12-23T21:31:43.441Z,100222.66
2022-12-23T21:34:13.780Z,100222.25
2022-12-23T21:36:43.523Z,100221.90000000001
2022-12-23T21:46:43.805Z,100226.36
2022-12-23T21:51:43.416Z,100231.43
2022-12-23T21:54:13.586Z,100234.06
2022-12-23T21:56:43.286Z,100236.19
2022-12-23T21:59:14.037Z,100236.61
2022-12-23T22:01:43.353Z,100239.42
2022-12-23T22:04:13.325Z,100245.43
2022-12-23T22:06:44.683Z,100246.72
2022-12-23T22:09:16.153Z,100250.76000000001
2022-12-23T22:11:44.653Z,100250.75
2022-12-23T22:14:15.563Z,100249.95
2022-12-23T22:16:43.497Z,100254.03
2022-12-23T22:19:13.636Z,100256.07
2022-12-23T22:21:43.444Z,100260.24
2022-12-23T22:24:13.333Z,100254.42
2022-12-23T22:26:43.279Z,100261.69
2022-12-23T22:29:13.516Z,100262.14
2022-12-23T22:31:45.471Z,100263.5
2022-12-23T22:34:16.320Z,100264.15
2022-12-23T22:36:43.574Z,100264.83
2022-12-23T22:39:20.055Z,100275.39
2022-12-23T22:41:43.609Z,100285.08
2022-12-23T22:44:14.346Z,100290.86
2022-12-23T22:46:43.612Z,100289.9
2022-12-23T22:49:14.478Z,100290.43000000001
2022-12-23T22:51:44.129Z,100292.02
2022-12-23T22:54:13.364Z,100292.39
2022-12-23T22:59:19.777Z,100282.97
2022-12-23T23:01:43.332Z,100290.7
2022-12-23T23:04:13.263Z,100294.08
2022-12-23T23:06:43.763Z,100295.23000000001
2022-12-23T23:11:43.582Z,100292.3
2022-12-23T23:14:13.414Z,100291.95999999999
2022-12-23T23:16:43.580Z,100301.85
2022-12-23T23:21:43.374Z,100311.91
2022-12-23T23:24:13.627Z,100307.48
2022-12-23T23:29:13.633Z,100302.15
2022-12-23T23:31:44.252Z,100300.3
2022-12-23T23:34:13.333Z,100299.1
2022-12-23T23:36:43.658Z,100300.49
2022-12-23T23:39:13.313Z,100303.17
2022-12-23T23:44:13.454Z,100304.81999999999
2022-12-23T23:46:43.700Z,100308.98999999999
2022-12-23T23:49:14.013Z,100307.56
2022-12-23T23:51:43.448Z,100305.12999999999
2022-12-23T23:54:13.277Z,100304.61
2022-12-23T23:56:43.501Z,100318.42
2022-12-23T23:59:13.568Z,100325.04000000001
